createdAt,value
2018-11-03T00:01:13.642Z,1.70
2018-11-03T00:03:41.829Z,1.60
2018-11-03T00:06:09.970Z,1.60
2018-11-03T00:08:38.087Z,1.70
2018-11-03T00:11:06.217Z,1.60
2018-11-03T00:13:34.358Z,1.60
2018-11-03T00:16:02.499Z,1.50
2018-11-03T00:18:30.699Z,1.50
2018-11-03T00:20:58.830Z,1.50
2018-11-03T00:23:26.947Z,1.40
2018-11-03T00:25:55.050Z,1.30
2018-11-03T00:28:23.179Z,1.30
2018-11-03T00:30:51.334Z,1.30
2018-11-03T00:33:19.458Z,1.30
2018-11-03T00:35:47.553Z,1.30
2018-11-03T00:38:15.658Z,1.30
2018-11-03T00:40:43.750Z,1.30
2018-11-03T00:43:11.859Z,1.20
2018-11-03T00:45:39.941Z,1.30
2018-11-03T00:48:08.135Z,1.30
2018-11-03T00:50:36.174Z,1.30
2018-11-03T00:53:04.796Z,1.30
2018-11-03T00:55:32.903Z,1.30
2018-11-03T00:58:00.994Z,1.30
2018-11-03T01:00:29.135Z,1.30
2018-11-03T01:02:57.221Z,1.20
2018-11-03T01:05:25.330Z,1.20
2018-11-03T01:07:53.450Z,1.20
2018-11-03T01:10:21.541Z,1.20
2018-11-03T01:12:49.659Z,1.10
2018-11-03T01:15:18.271Z,1.10
2018-11-03T01:17:46.442Z,1.00
2018-11-03T01:20:15.858Z,1.00
2018-11-03T01:22:44.051Z,0.90
2018-11-03T01:25:12.181Z,0.90
2018-11-03T01:27:40.370Z,0.80
2018-11-03T01:30:10.293Z,0.70
2018-11-03T01:32:38.547Z,0.70
2018-11-03T01:35:07.141Z,0.60
2018-11-03T01:37:35.495Z,0.60
2018-11-03T01:40:03.594Z,0.60
2018-11-03T01:42:31.702Z,0.70
2018-11-03T01:44:59.782Z,0.70
2018-11-03T01:47:27.886Z,0.60
2018-11-03T01:49:55.971Z,0.50
2018-11-03T01:52:24.083Z,0.50
2018-11-03T01:54:52.184Z,0.50
2018-11-03T01:57:20.305Z,0.40
2018-11-03T01:59:48.426Z,0.40
2018-11-03T02:02:16.537Z,0.50
2018-11-03T02:04:44.658Z,0.50
2018-11-03T02:07:12.798Z,0.60
2018-11-03T02:09:40.910Z,0.60
2018-11-03T02:12:09.018Z,0.70
2018-11-03T02:14:37.170Z,0.80
2018-11-03T02:17:05.603Z,0.90
2018-11-03T02:19:33.726Z,1.10
2018-11-03T02:22:01.835Z,1.20
2018-11-03T02:24:29.954Z,1.20
2018-11-03T02:26:58.092Z,1.30
2018-11-03T02:29:26.170Z,1.30
2018-11-03T02:31:54.262Z,1.40
2018-11-03T02:34:22.409Z,1.40
2018-11-03T02:36:50.494Z,1.40
2018-11-03T02:39:18.609Z,1.40
2018-11-03T02:41:46.749Z,1.40
2018-11-03T02:44:14.866Z,1.40
2018-11-03T02:46:42.953Z,1.40
2018-11-03T02:49:11.061Z,1.30
2018-11-03T02:51:39.150Z,1.30
2018-11-03T02:54:07.279Z,1.30
2018-11-03T02:56:35.386Z,1.30
2018-11-03T02:59:03.502Z,1.20
2018-11-03T03:01:31.623Z,1.20
2018-11-03T03:03:59.742Z,1.20
2018-11-03T03:06:27.825Z,1.20
2018-11-03T03:08:55.934Z,1.20
2018-11-03T03:11:24.017Z,1.20
2018-11-03T03:13:52.104Z,1.10
2018-11-03T03:16:20.206Z,1.10
2018-11-03T03:18:48.291Z,1.10
2018-11-03T03:21:16.393Z,1.20
2018-11-03T03:23:44.500Z,1.10
2018-11-03T03:26:12.626Z,1.00
2018-11-03T03:28:40.775Z,1.10
2018-11-03T03:31:08.914Z,1.20
2018-11-03T03:33:37.042Z,1.20
2018-11-03T03:36:05.575Z,1.20
2018-11-03T03:38:33.657Z,1.30
2018-11-03T03:41:01.779Z,1.40
2018-11-03T03:43:29.875Z,1.40
2018-11-03T03:45:57.970Z,1.40
2018-11-03T03:48:26.080Z,1.40
2018-11-03T03:50:54.233Z,1.20
2018-11-03T03:53:22.318Z,1.10
2018-11-03T03:55:50.402Z,1.00
2018-11-03T03:58:18.540Z,1.00
2018-11-03T04:00:46.653Z,1.10
2018-11-03T04:03:14.734Z,1.20
2018-11-03T04:05:42.885Z,1.20
2018-11-03T04:08:11.052Z,1.30
2018-11-03T04:10:39.201Z,1.20
2018-11-03T04:13:07.313Z,1.20
2018-11-03T04:15:35.439Z,1.20
2018-11-03T04:18:03.640Z,1.30
2018-11-03T04:20:31.768Z,1.30
2018-11-03T04:22:59.920Z,1.40
2018-11-03T04:25:28.039Z,1.50
2018-11-03T04:27:56.147Z,1.60
2018-11-03T04:30:24.263Z,1.70
2018-11-03T04:32:52.390Z,1.70
2018-11-03T04:35:20.575Z,1.70
2018-11-03T04:37:48.756Z,1.60
2018-11-03T04:40:16.927Z,1.70
2018-11-03T04:42:45.075Z,1.80
2018-11-03T04:45:13.251Z,1.80
2018-11-03T04:47:41.339Z,1.80
2018-11-03T04:50:10.230Z,1.70
2018-11-03T04:52:38.408Z,1.70
2018-11-03T04:55:07.242Z,1.80
2018-11-03T04:57:35.303Z,1.90
2018-11-03T05:00:03.550Z,1.90
2018-11-03T05:02:31.679Z,1.80
2018-11-03T05:04:59.795Z,1.70
2018-11-03T05:07:27.962Z,1.70
2018-11-03T05:09:56.138Z,1.80
2018-11-03T05:12:24.151Z,1.90
2018-11-03T05:14:52.256Z,2.00
2018-11-03T05:17:20.382Z,2.00
2018-11-03T05:19:48.464Z,2.10
2018-11-03T05:22:16.551Z,2.10
2018-11-03T05:27:10.515Z,2.20
2018-11-03T05:29:38.599Z,2.20
2018-11-03T05:32:06.876Z,2.30
2018-11-03T05:34:35.002Z,2.30
2018-11-03T05:37:03.109Z,2.30
2018-11-03T05:39:31.214Z,2.30
2018-11-03T05:41:59.303Z,2.40
2018-11-03T05:44:27.406Z,2.40
2018-11-03T05:46:55.507Z,2.30
2018-11-03T05:49:23.594Z,2.20
2018-11-03T05:51:51.678Z,2.20
2018-11-03T05:54:19.799Z,2.20
2018-11-03T05:56:47.892Z,2.20
2018-11-03T05:59:15.981Z,2.20
2018-11-03T06:01:44.125Z,2.20
2018-11-03T06:04:12.287Z,2.20
2018-11-03T06:06:40.511Z,2.20
2018-11-03T06:09:09.495Z,2.10
2018-11-03T06:11:37.666Z,2.10
2018-11-03T06:14:05.837Z,2.00
2018-11-03T06:16:33.928Z,2.00
2018-11-03T06:19:02.063Z,2.10
2018-11-03T06:21:30.223Z,2.20
2018-11-03T06:23:58.366Z,2.20
2018-11-03T06:26:26.513Z,2.30
2018-11-03T06:28:54.610Z,2.20
2018-11-03T06:31:22.770Z,2.20
2018-11-03T06:33:50.883Z,2.10
2018-11-03T06:36:19.031Z,2.10
2018-11-03T06:38:47.171Z,2.10
2018-11-03T06:41:15.304Z,2.10
2018-11-03T06:43:43.432Z,2.10
2018-11-03T06:46:11.532Z,2.10
2018-11-03T06:48:39.639Z,2.20
2018-11-03T06:53:41.258Z,2.20
2018-11-03T06:56:09.369Z,2.20
2018-11-03T06:58:37.511Z,2.30
2018-11-03T07:01:05.654Z,2.30
2018-11-03T07:03:33.767Z,2.10
2018-11-03T07:06:01.944Z,2.00
2018-11-03T07:08:30.054Z,1.90
2018-11-03T07:10:58.217Z,2.00
2018-11-03T07:13:26.545Z,2.00
2018-11-03T07:15:54.559Z,1.90
2018-11-03T07:18:22.695Z,2.00
2018-11-03T07:20:50.838Z,2.10
2018-11-03T07:23:19.006Z,2.20
2018-11-03T07:25:47.162Z,2.40
2018-11-03T07:28:15.294Z,2.40
2018-11-03T07:30:43.435Z,2.50
2018-11-03T07:33:11.575Z,2.50
2018-11-03T07:35:39.787Z,2.60
2018-11-03T07:38:07.896Z,2.40
2018-11-03T07:40:36.055Z,2.40
2018-11-03T07:43:04.238Z,2.40
2018-11-03T07:45:32.357Z,2.50
2018-11-03T07:48:00.593Z,2.60
2018-11-03T07:50:28.685Z,2.60
2018-11-03T07:52:56.811Z,2.40
2018-11-03T07:55:26.226Z,2.30
2018-11-03T07:57:54.353Z,2.40
2018-11-03T08:00:22.563Z,2.50
2018-11-03T08:02:50.692Z,2.50
2018-11-03T08:05:19.940Z,2.50
2018-11-03T08:07:48.174Z,2.60
2018-11-03T08:10:16.304Z,2.60
2018-11-03T08:12:44.418Z,2.60
2018-11-03T08:15:12.582Z,2.60
2018-11-03T08:17:40.742Z,2.50
2018-11-03T08:20:10.132Z,2.40
2018-11-03T08:22:38.339Z,2.40
2018-11-03T08:25:06.563Z,2.50
2018-11-03T08:27:34.682Z,2.50
2018-11-03T08:30:02.852Z,2.70
2018-11-03T08:32:31.014Z,2.80
2018-11-03T08:34:59.143Z,2.90
2018-11-03T08:37:27.278Z,3.00
2018-11-03T08:39:55.418Z,3.00
2018-11-03T08:42:23.541Z,2.90
2018-11-03T08:44:51.676Z,2.90
2018-11-03T08:47:19.846Z,3.00
2018-11-03T08:49:47.978Z,3.20
2018-11-03T08:52:16.090Z,3.30
2018-11-03T08:54:44.238Z,3.40
2018-11-03T08:57:12.398Z,3.50
2018-11-03T08:59:40.705Z,3.60
2018-11-03T09:02:08.674Z,3.70
2018-11-03T09:04:36.858Z,3.80
2018-11-03T09:07:05.075Z,3.90
2018-11-03T09:09:33.128Z,3.90
2018-11-03T09:12:01.274Z,4.10
2018-11-03T09:14:29.442Z,4.30
2018-11-03T09:16:57.604Z,4.20
2018-11-03T09:19:25.813Z,4.20
2018-11-03T09:21:53.917Z,4.30
2018-11-03T09:24:21.999Z,4.40
2018-11-03T09:26:50.167Z,4.50
2018-11-03T09:29:18.376Z,4.60
2018-11-03T09:31:46.531Z,4.60
2018-11-03T09:34:14.554Z,4.60
2018-11-03T09:36:42.678Z,4.80
2018-11-03T09:39:11.434Z,4.90
2018-11-03T09:41:39.750Z,4.80
2018-11-03T09:44:07.882Z,4.70
2018-11-03T09:46:36.010Z,4.80
2018-11-03T09:49:04.461Z,4.80
2018-11-03T09:51:32.567Z,4.90
2018-11-03T09:54:00.691Z,4.80
2018-11-03T09:56:28.839Z,4.90
2018-11-03T09:58:56.950Z,5.00
2018-11-03T10:01:25.054Z,5.20
2018-11-03T10:03:53.199Z,5.20
2018-11-03T10:06:21.319Z,5.50
2018-11-03T10:08:49.394Z,5.70
2018-11-03T10:11:17.565Z,5.90
2018-11-03T10:13:48.396Z,6.20
2018-11-03T10:16:16.722Z,6.50
2018-11-03T10:18:44.842Z,6.70
2018-11-03T10:21:13.070Z,6.70
2018-11-03T10:23:41.234Z,6.80
2018-11-03T10:26:09.358Z,7.00
2018-11-03T10:28:37.483Z,7.20
2018-11-03T10:31:05.585Z,7.40
2018-11-03T10:33:33.793Z,7.50
2018-11-03T10:36:01.834Z,7.70
2018-11-03T10:38:29.989Z,7.70
2018-11-03T10:40:58.118Z,7.80
2018-11-03T10:43:26.242Z,8.00
2018-11-03T10:45:54.342Z,8.10
2018-11-03T10:48:22.462Z,8.20
2018-11-03T10:50:50.578Z,8.30
2018-11-03T10:53:18.758Z,8.20
2018-11-03T10:55:46.849Z,7.90
2018-11-03T10:58:14.950Z,7.90
2018-11-03T11:01:49.373Z,7.90
2018-11-03T11:04:22.990Z,7.90
2018-11-03T11:06:56.384Z,8.00
2018-11-03T11:09:30.142Z,8.10
2018-11-03T11:12:03.563Z,8.20
2018-11-03T11:14:31.786Z,8.20
2018-11-03T11:16:59.993Z,8.30
2018-11-03T11:19:28.039Z,8.40
2018-11-03T11:21:56.138Z,8.40
2018-11-03T11:24:24.364Z,8.30
2018-11-03T11:26:52.342Z,8.40
2018-11-03T11:29:20.467Z,8.40
2018-11-03T11:31:48.658Z,8.40
2018-11-03T11:34:16.756Z,8.40
2018-11-03T11:36:44.873Z,8.50
2018-11-03T11:39:12.962Z,8.50
2018-11-03T11:41:41.083Z,8.60
2018-11-03T11:44:09.182Z,8.60
2018-11-03T11:46:37.301Z,8.70
2018-11-03T11:49:05.478Z,8.70
2018-11-03T11:51:33.673Z,8.70
2018-11-03T11:54:01.798Z,8.70
2018-11-03T11:56:29.906Z,8.60
2018-11-03T11:58:58.014Z,8.60
2018-11-03T12:01:26.126Z,8.70
2018-11-03T12:03:54.226Z,8.70
2018-11-03T12:06:22.322Z,8.90
2018-11-03T12:08:50.443Z,9.00
2018-11-03T12:11:18.586Z,9.30
2018-11-03T12:13:46.758Z,9.50
2018-11-03T12:16:14.903Z,9.40
2018-11-03T12:18:43.002Z,9.50
2018-11-03T12:21:11.175Z,9.80
2018-11-03T12:23:39.298Z,9.90
2018-11-03T12:26:07.431Z,9.90
2018-11-03T12:28:35.570Z,10.00
2018-11-03T12:31:03.693Z,9.90
2018-11-03T12:33:31.818Z,9.80
2018-11-03T12:35:59.958Z,9.80
2018-11-03T12:38:28.096Z,9.70
2018-11-03T12:40:56.307Z,9.70
2018-11-03T12:43:24.333Z,9.70
2018-11-03T12:45:52.466Z,9.70
2018-11-03T12:48:20.686Z,9.80
2018-11-03T12:50:48.766Z,9.70
2018-11-03T12:53:16.966Z,9.80
2018-11-03T12:55:45.019Z,9.80
2018-11-03T12:58:13.115Z,9.90
2018-11-03T13:00:41.231Z,10.00
2018-11-03T13:03:09.344Z,10.20
2018-11-03T13:05:37.446Z,10.40
2018-11-03T13:08:05.574Z,10.40
2018-11-03T13:10:33.698Z,10.80
2018-11-03T13:13:01.794Z,11.10
2018-11-03T13:15:29.899Z,11.20
2018-11-03T13:17:58.015Z,11.50
2018-11-03T13:20:26.134Z,11.90
2018-11-03T13:22:54.349Z,12.20
2018-11-03T13:25:22.338Z,12.20
2018-11-03T13:27:50.458Z,12.30
2018-11-03T13:30:18.559Z,12.30
2018-11-03T13:32:46.671Z,12.60
2018-11-03T13:35:14.826Z,12.70
2018-11-03T13:37:42.926Z,12.80
2018-11-03T13:40:12.366Z,12.60
2018-11-03T13:42:40.559Z,12.20
2018-11-03T13:45:09.106Z,12.40
2018-11-03T13:47:38.144Z,12.40
2018-11-03T13:50:12.090Z,12.30
2018-11-03T13:52:41.226Z,12.10
2018-11-03T13:55:09.894Z,11.50
2018-11-03T13:57:38.179Z,11.50
2018-11-03T14:00:07.387Z,11.40
2018-11-03T14:02:35.599Z,11.30
2018-11-03T14:05:03.694Z,11.20
2018-11-03T14:07:31.828Z,11.00
2018-11-03T14:09:59.922Z,10.80
2018-11-03T14:12:28.074Z,10.60
2018-11-03T14:14:56.220Z,10.40
2018-11-03T14:17:24.341Z,10.30
2018-11-03T14:19:52.496Z,10.30
2018-11-03T14:22:20.611Z,9.90
2018-11-03T14:24:48.756Z,9.70
2018-11-03T14:27:16.867Z,9.50
2018-11-03T14:29:45.018Z,9.50
2018-11-03T14:32:13.161Z,9.30
2018-11-03T14:34:41.302Z,9.30
2018-11-03T14:37:09.399Z,9.30
2018-11-03T14:39:37.511Z,9.20
2018-11-03T14:42:05.810Z,9.20
2018-11-03T14:44:33.978Z,9.10
2018-11-03T14:47:02.000Z,9.10
2018-11-03T14:49:30.104Z,9.00
2018-11-03T14:51:58.195Z,9.00
2018-11-03T14:54:26.310Z,9.00
2018-11-03T14:56:54.435Z,9.00
2018-11-03T14:59:22.546Z,8.90
2018-11-03T15:01:50.673Z,8.80
2018-11-03T15:04:18.848Z,8.60
2018-11-03T15:06:46.994Z,8.50
2018-11-03T15:09:15.110Z,8.60
2018-11-03T15:11:43.719Z,8.60
2018-11-03T15:14:11.947Z,8.40
2018-11-03T15:16:40.470Z,8.40
2018-11-03T15:19:08.904Z,8.20
2018-11-03T15:21:37.033Z,8.20
2018-11-03T15:24:05.145Z,8.10
2018-11-03T15:26:33.261Z,7.90
2018-11-03T15:29:01.380Z,7.80
2018-11-03T15:31:29.463Z,7.80
2018-11-03T15:33:57.683Z,7.60
2018-11-03T15:36:25.775Z,7.50
2018-11-03T15:38:53.899Z,7.50
2018-11-03T15:41:22.033Z,7.40
2018-11-03T15:43:50.166Z,7.20
2018-11-03T15:46:18.266Z,7.20
2018-11-03T15:48:46.356Z,7.10
2018-11-03T15:51:14.475Z,6.90
2018-11-03T15:53:42.579Z,6.90
2018-11-03T15:56:10.710Z,6.80
2018-11-03T15:58:38.822Z,6.70
2018-11-03T16:01:06.940Z,6.70
2018-11-03T16:03:35.034Z,6.60
2018-11-03T16:06:03.214Z,6.50
2018-11-03T16:08:31.314Z,6.50
2018-11-03T16:10:59.474Z,6.40
2018-11-03T16:13:27.602Z,6.40
2018-11-03T16:15:55.824Z,6.30
2018-11-03T16:18:24.078Z,6.30
2018-11-03T16:20:52.275Z,6.20
2018-11-03T16:23:20.532Z,6.20
2018-11-03T16:25:48.827Z,6.10
2018-11-03T16:28:16.964Z,6.00
2018-11-03T16:30:45.133Z,5.90
2018-11-03T16:33:13.374Z,5.80
2018-11-03T16:35:41.670Z,5.80
2018-11-03T16:38:09.854Z,5.70
2018-11-03T16:40:38.093Z,5.70
2018-11-03T16:43:06.341Z,5.70
2018-11-03T16:45:34.578Z,5.70
2018-11-03T16:48:02.779Z,5.60
2018-11-03T16:50:30.997Z,5.50
2018-11-03T16:52:59.206Z,5.50
2018-11-03T16:55:27.513Z,5.40
2018-11-03T16:57:55.693Z,5.40
2018-11-03T17:00:23.914Z,5.20
2018-11-03T17:02:52.122Z,5.30
2018-11-03T17:05:20.391Z,5.30
2018-11-03T17:07:48.690Z,5.30
2018-11-03T17:10:16.897Z,5.30
2018-11-03T17:12:46.407Z,5.30
2018-11-03T17:15:14.873Z,5.20
2018-11-03T17:17:43.074Z,5.20
2018-11-03T17:20:11.427Z,5.10
2018-11-03T17:22:39.667Z,5.00
2018-11-03T17:25:09.607Z,5.00
2018-11-03T17:27:37.893Z,5.00
2018-11-03T17:30:07.677Z,4.90
2018-11-03T17:32:36.044Z,4.90
2018-11-03T17:35:04.544Z,4.80
2018-11-03T17:37:33.629Z,4.70
2018-11-03T17:40:01.821Z,4.80
2018-11-03T17:42:30.049Z,4.80
2018-11-03T17:44:58.298Z,4.80
2018-11-03T17:47:26.478Z,4.70
2018-11-03T17:49:54.722Z,4.70
2018-11-03T17:52:22.932Z,4.60
2018-11-03T17:54:51.204Z,4.50
2018-11-03T17:57:19.340Z,4.50
2018-11-03T17:59:47.522Z,4.50
2018-11-03T18:02:16.078Z,4.50
2018-11-03T18:04:43.908Z,4.50
2018-11-03T18:07:12.112Z,4.50
2018-11-03T18:09:40.361Z,4.50
2018-11-03T18:12:08.554Z,4.50
2018-11-03T18:14:36.742Z,4.50
2018-11-03T18:17:05.222Z,4.60
2018-11-03T18:19:33.498Z,4.50
2018-11-03T18:22:01.669Z,4.50
2018-11-03T18:24:29.867Z,4.50
2018-11-03T18:26:58.076Z,4.30
2018-11-03T18:29:26.293Z,4.30
2018-11-03T18:31:54.516Z,4.30
2018-11-03T18:34:22.700Z,4.30
2018-11-03T18:36:50.924Z,4.30
2018-11-03T18:39:19.122Z,4.20
2018-11-03T18:41:47.508Z,4.20
2018-11-03T18:44:15.530Z,4.20
2018-11-03T18:46:43.820Z,4.20
2018-11-03T18:49:11.974Z,4.20
2018-11-03T18:51:40.265Z,4.20
2018-11-03T18:54:08.429Z,4.20
2018-11-03T18:56:36.688Z,4.30
2018-11-03T18:59:05.146Z,4.20
2018-11-03T19:01:33.373Z,4.30
2018-11-03T19:04:01.593Z,4.20
2018-11-03T19:06:29.835Z,4.30
2018-11-03T19:08:58.070Z,4.20
2018-11-03T19:11:26.306Z,4.20
2018-11-03T19:13:54.538Z,4.20
2018-11-03T19:16:22.743Z,4.10
2018-11-03T19:18:50.992Z,4.10
2018-11-03T19:21:19.273Z,4.10
2018-11-03T19:23:47.593Z,4.00
2018-11-03T19:26:15.722Z,4.00
2018-11-03T19:28:43.929Z,4.00
2018-11-03T19:31:12.157Z,4.00
2018-11-03T19:33:40.808Z,4.10
2018-11-03T19:36:09.023Z,4.00
2018-11-03T19:38:37.215Z,4.10
2018-11-03T19:41:05.427Z,4.00
2018-11-03T19:43:33.609Z,3.90
2018-11-03T19:46:01.815Z,3.90
2018-11-03T19:48:30.022Z,3.90
2018-11-03T19:50:58.252Z,4.00
2018-11-03T19:53:26.521Z,3.90
2018-11-03T19:55:54.884Z,3.90
2018-11-03T19:58:22.924Z,3.90
2018-11-03T20:00:51.165Z,4.00
2018-11-03T20:03:19.401Z,4.00
2018-11-03T20:05:47.625Z,4.00
2018-11-03T20:08:15.836Z,4.00
2018-11-03T20:10:44.069Z,3.90
2018-11-03T20:13:12.283Z,3.90
2018-11-03T20:15:40.485Z,3.70
2018-11-03T20:18:08.700Z,3.60
2018-11-03T20:20:36.888Z,3.70
2018-11-03T20:23:05.202Z,3.60
2018-11-03T20:25:33.421Z,3.60
2018-11-03T20:28:01.658Z,3.60
2018-11-03T20:30:29.894Z,3.70
2018-11-03T20:32:58.136Z,3.60
2018-11-03T20:35:26.277Z,3.70
2018-11-03T20:37:54.485Z,3.70
2018-11-03T20:40:22.667Z,3.70
2018-11-03T20:42:50.862Z,3.70
2018-11-03T20:45:19.099Z,3.70
2018-11-03T20:47:47.336Z,3.60
2018-11-03T20:50:15.576Z,3.60
2018-11-03T20:52:43.781Z,3.60
2018-11-03T20:55:12.637Z,3.60
2018-11-03T20:57:41.186Z,3.60
2018-11-03T21:00:11.466Z,3.60
2018-11-03T21:02:39.665Z,3.60
2018-11-03T21:05:08.887Z,3.60
2018-11-03T21:07:37.074Z,3.60
2018-11-03T21:10:05.506Z,3.60
2018-11-03T21:12:33.720Z,3.60
2018-11-03T21:15:01.926Z,3.50
2018-11-03T21:17:30.134Z,3.50
2018-11-03T21:19:58.336Z,3.50
2018-11-03T21:22:26.534Z,3.50
2018-11-03T21:24:54.742Z,3.50
2018-11-03T21:27:22.941Z,3.50
2018-11-03T21:29:51.274Z,3.50
2018-11-03T21:32:19.522Z,3.50
2018-11-03T21:34:47.629Z,3.50
2018-11-03T21:37:15.854Z,3.50
2018-11-03T21:39:44.030Z,3.50
2018-11-03T21:42:12.225Z,3.50
2018-11-03T21:44:40.455Z,3.50
2018-11-03T21:47:08.693Z,3.40
2018-11-03T21:49:36.845Z,3.30
2018-11-03T21:52:05.538Z,3.20
2018-11-03T21:54:33.776Z,3.20
2018-11-03T21:57:01.959Z,3.10
2018-11-03T21:59:30.148Z,3.20
2018-11-03T22:01:58.381Z,3.10
2018-11-03T22:04:26.580Z,3.20
2018-11-03T22:06:54.787Z,3.10
2018-11-03T22:09:22.991Z,3.00
2018-11-03T22:11:51.177Z,3.10
2018-11-03T22:14:19.407Z,3.10
2018-11-03T22:16:47.595Z,3.10
2018-11-03T22:19:15.817Z,3.10
2018-11-03T22:21:44.072Z,3.10
2018-11-03T22:24:12.227Z,3.20
2018-11-03T22:26:40.459Z,3.10
2018-11-03T22:29:08.683Z,3.10
2018-11-03T22:31:36.860Z,3.10
2018-11-03T22:34:05.538Z,3.00
2018-11-03T22:36:33.741Z,3.00
2018-11-03T22:39:01.949Z,3.00
2018-11-03T22:41:30.122Z,3.00
2018-11-03T22:43:58.333Z,3.00
2018-11-03T22:46:26.535Z,3.10
2018-11-03T22:48:54.735Z,3.10
2018-11-03T22:51:23.057Z,3.20
2018-11-03T22:53:51.147Z,3.20
2018-11-03T22:56:19.352Z,3.20
2018-11-03T22:58:47.556Z,3.20
2018-11-03T23:01:15.738Z,3.30
2018-11-03T23:03:43.932Z,3.20
2018-11-03T23:06:12.198Z,3.20
2018-11-03T23:08:40.377Z,3.20
2018-11-03T23:11:08.610Z,3.10
2018-11-03T23:13:36.809Z,3.20
2018-11-03T23:16:05.181Z,3.10
2018-11-03T23:18:33.407Z,3.10
2018-11-03T23:21:01.596Z,3.10
2018-11-03T23:23:29.803Z,3.00
2018-11-03T23:25:58.034Z,3.00
2018-11-03T23:28:26.246Z,2.90
2018-11-03T23:30:54.465Z,2.80
2018-11-03T23:33:22.696Z,2.80
2018-11-03T23:35:50.909Z,2.80
2018-11-03T23:38:19.376Z,2.90
2018-11-03T23:40:47.566Z,2.90
2018-11-03T23:43:15.787Z,2.80
2018-11-03T23:45:43.993Z,2.80
2018-11-03T23:48:12.182Z,2.90
2018-11-03T23:50:40.376Z,2.90
2018-11-03T23:53:08.617Z,2.90
2018-11-03T23:55:36.755Z,3.00
2018-11-03T23:58:05.261Z,3.00
